sensor_id;sensor_type;location;lat;lon;timestamp;temperature;humidity
35920;DHT22;36160;53.370;-6.196;2023-01-29T00:01:38;6.60;99.90
35920;DHT22;36160;53.370;-6.196;2023-01-29T00:04:04;6.50;99.90
35920;DHT22;36160;53.370;-6.196;2023-01-29T00:06:30;6.50;99.90
35920;DHT22;36160;53.370;-6.196;2023-01-29T00:08:56;6.50;99.90
35920;DHT22;36160;53.370;-6.196;2023-01-29T00:11:22;6.50;99.90
35920;DHT22;36160;53.370;-6.196;2023-01-29T00:13:50;6.50;99.90
35920;DHT22;36160;53.370;-6.196;2023-01-29T00:16:16;6.50;99.90
35920;DHT22;36160;53.370;-6.196;2023-01-29T00:18:41;6.50;99.90
35920;DHT22;36160;53.370;-6.196;2023-01-29T00:21:18;6.50;99.90
35920;DHT22;36160;53.370;-6.196;2023-01-29T00:23:44;6.50;99.90
35920;DHT22;36160;53.370;-6.196;2023-01-29T00:26:10;6.50;99.90
35920;DHT22;36160;53.370;-6.196;2023-01-29T00:28:36;6.50;99.90
35920;DHT22;36160;53.370;-6.196;2023-01-29T00:31:09;6.40;99.90
35920;DHT22;36160;53.370;-6.196;2023-01-29T00:33:35;6.40;99.90
35920;DHT22;36160;53.370;-6.196;2023-01-29T00:36:06;6.40;99.90
35920;DHT22;36160;53.370;-6.196;2023-01-29T00:38:33;6.50;99.90
35920;DHT22;36160;53.370;-6.196;2023-01-29T00:41:10;6.40;99.90
35920;DHT22;36160;53.370;-6.196;2023-01-29T00:43:55;6.40;99.90
35920;DHT22;36160;53.370;-6.196;2023-01-29T00:46:40;6.50;99.90
35920;DHT22;36160;53.370;-6.196;2023-01-29T00:49:06;6.40;99.90
35920;DHT22;36160;53.370;-6.196;2023-01-29T00:51:32;6.40;99.90
35920;DHT22;36160;53.370;-6.196;2023-01-29T00:53:58;6.40;99.90
35920;DHT22;36160;53.370;-6.196;2023-01-29T00:56:28;6.40;99.90
35920;DHT22;36160;53.370;-6.196;2023-01-29T00:58:55;6.40;99.90
35920;DHT22;36160;53.370;-6.196;2023-01-29T01:01:21;6.40;99.90
35920;DHT22;36160;53.370;-6.196;2023-01-29T01:04:08;6.40;99.90
35920;DHT22;36160;53.370;-6.196;2023-01-29T01:06:41;6.40;99.90
35920;DHT22;36160;53.370;-6.196;2023-01-29T01:09:08;6.40;99.90
35920;DHT22;36160;53.370;-6.196;2023-01-29T01:11:53;6.40;99.90
35920;DHT22;36160;53.370;-6.196;2023-01-29T01:14:19;6.40;99.90
35920;DHT22;36160;53.370;-6.196;2023-01-29T01:16:45;6.40;99.90
35920;DHT22;36160;53.370;-6.196;2023-01-29T01:19:12;6.40;99.90
35920;DHT22;36160;53.370;-6.196;2023-01-29T01:21:39;6.40;99.90
35920;DHT22;36160;53.370;-6.196;2023-01-29T01:24:04;6.40;99.90
35920;DHT22;36160;53.370;-6.196;2023-01-29T01:26:31;6.40;99.90
35920;DHT22;36160;53.370;-6.196;2023-01-29T01:28:57;6.40;99.90
35920;DHT22;36160;53.370;-6.196;2023-01-29T01:31:23;6.40;99.90
35920;DHT22;36160;53.370;-6.196;2023-01-29T01:33:49;6.40;99.90
35920;DHT22;36160;53.370;-6.196;2023-01-29T01:36:16;6.40;99.90
35920;DHT22;36160;53.370;-6.196;2023-01-29T01:38:43;6.40;99.90
35920;DHT22;36160;53.370;-6.196;2023-01-29T01:41:13;6.40;99.90
35920;DHT22;36160;53.370;-6.196;2023-01-29T01:43:57;6.40;99.90
35920;DHT22;36160;53.370;-6.196;2023-01-29T01:46:25;6.40;99.90
35920;DHT22;36160;53.370;-6.196;2023-01-29T01:51:40;6.30;99.90
35920;DHT22;36160;53.370;-6.196;2023-01-29T01:54:12;6.30;99.90
35920;DHT22;36160;53.370;-6.196;2023-01-29T01:56:43;6.20;99.90
35920;DHT22;36160;53.370;-6.196;2023-01-29T01:59:12;6.20;99.90
35920;DHT22;36160;53.370;-6.196;2023-01-29T02:01:39;6.20;99.90
35920;DHT22;36160;53.370;-6.196;2023-01-29T02:04:10;6.20;99.90
35920;DHT22;36160;53.370;-6.196;2023-01-29T02:06:58;6.20;99.90
35920;DHT22;36160;53.370;-6.196;2023-01-29T02:09:51;6.20;99.90
35920;DHT22;36160;53.370;-6.196;2023-01-29T02:12:19;6.20;99.90
35920;DHT22;36160;53.370;-6.196;2023-01-29T02:14:45;6.20;99.90
35920;DHT22;36160;53.370;-6.196;2023-01-29T02:17:14;6.30;99.90
35920;DHT22;36160;53.370;-6.196;2023-01-29T02:37:40;6.10;99.90
35920;DHT22;36160;53.370;-6.196;2023-01-29T02:40:39;6.20;99.90
35920;DHT22;36160;53.370;-6.196;2023-01-29T02:43:46;6.20;99.90
35920;DHT22;36160;53.370;-6.196;2023-01-29T02:46:29;6.10;99.90
35920;DHT22;36160;53.370;-6.196;2023-01-29T02:48:57;6.20;99.90
35920;DHT22;36160;53.370;-6.196;2023-01-29T02:57:06;6.20;99.90
35920;DHT22;36160;53.370;-6.196;2023-01-29T02:59:43;6.10;99.90
35920;DHT22;36160;53.370;-6.196;2023-01-29T03:02:12;6.10;99.90
35920;DHT22;36160;53.370;-6.196;2023-01-29T03:04:44;6.10;99.90
35920;DHT22;36160;53.370;-6.196;2023-01-29T03:07:23;6.10;99.90
35920;DHT22;36160;53.370;-6.196;2023-01-29T03:10:39;6.20;99.90
35920;DHT22;36160;53.370;-6.196;2023-01-29T03:13:15;6.20;99.90
35920;DHT22;36160;53.370;-6.196;2023-01-29T03:15:45;6.10;99.90
35920;DHT22;36160;53.370;-6.196;2023-01-29T03:18:22;6.10;99.90
35920;DHT22;36160;53.370;-6.196;2023-01-29T03:21:02;6.10;99.90
35920;DHT22;36160;53.370;-6.196;2023-01-29T03:23:49;6.10;99.90
35920;DHT22;36160;53.370;-6.196;2023-01-29T03:26:34;6.10;99.90
35920;DHT22;36160;53.370;-6.196;2023-01-29T03:29:18;6.00;99.90
35920;DHT22;36160;53.370;-6.196;2023-01-29T03:32:03;6.00;99.90
35920;DHT22;36160;53.370;-6.196;2023-01-29T03:34:47;6.00;99.90
35920;DHT22;36160;53.370;-6.196;2023-01-29T03:40:16;5.80;99.90
35920;DHT22;36160;53.370;-6.196;2023-01-29T03:49:07;5.90;99.90
35920;DHT22;36160;53.370;-6.196;2023-01-29T03:51:52;5.80;99.90
35920;DHT22;36160;53.370;-6.196;2023-01-29T03:55:14;5.80;99.90
35920;DHT22;36160;53.370;-6.196;2023-01-29T04:00:14;5.90;99.90
35920;DHT22;36160;53.370;-6.196;2023-01-29T04:02:54;5.80;99.90
35920;DHT22;36160;53.370;-6.196;2023-01-29T04:05:24;5.80;99.90
35920;DHT22;36160;53.370;-6.196;2023-01-29T04:07:53;5.90;99.90
35920;DHT22;36160;53.370;-6.196;2023-01-29T04:10:26;5.90;99.90
35920;DHT22;36160;53.370;-6.196;2023-01-29T04:12:57;5.90;99.90
35920;DHT22;36160;53.370;-6.196;2023-01-29T04:15:27;5.90;99.90
35920;DHT22;36160;53.370;-6.196;2023-01-29T04:17:55;5.80;99.90
35920;DHT22;36160;53.370;-6.196;2023-01-29T04:20:21;5.70;99.90
35920;DHT22;36160;53.370;-6.196;2023-01-29T04:22:50;5.70;99.90
35920;DHT22;36160;53.370;-6.196;2023-01-29T04:25:22;5.60;99.90
35920;DHT22;36160;53.370;-6.196;2023-01-29T04:28:04;5.60;99.90
35920;DHT22;36160;53.370;-6.196;2023-01-29T04:30:52;5.60;99.90
35920;DHT22;36160;53.370;-6.196;2023-01-29T04:41:35;5.40;99.90
35920;DHT22;36160;53.370;-6.196;2023-01-29T04:44:17;5.40;99.90
35920;DHT22;36160;53.370;-6.196;2023-01-29T04:46:51;5.40;99.90
35920;DHT22;36160;53.370;-6.196;2023-01-29T05:00:59;5.30;99.90
35920;DHT22;36160;53.370;-6.196;2023-01-29T05:03:27;5.30;99.90
35920;DHT22;36160;53.370;-6.196;2023-01-29T05:05:55;5.30;99.90
35920;DHT22;36160;53.370;-6.196;2023-01-29T05:08:23;5.30;99.90
35920;DHT22;36160;53.370;-6.196;2023-01-29T05:10:51;5.30;99.90
35920;DHT22;36160;53.370;-6.196;2023-01-29T05:13:20;5.30;99.90
35920;DHT22;36160;53.370;-6.196;2023-01-29T05:15:53;5.30;99.90
35920;DHT22;36160;53.370;-6.196;2023-01-29T05:18:22;5.30;99.90
35920;DHT22;36160;53.370;-6.196;2023-01-29T05:20:48;5.30;99.90
35920;DHT22;36160;53.370;-6.196;2023-01-29T05:23:15;5.40;99.90
35920;DHT22;36160;53.370;-6.196;2023-01-29T05:25:41;5.30;99.90
35920;DHT22;36160;53.370;-6.196;2023-01-29T05:28:08;5.30;99.90
35920;DHT22;36160;53.370;-6.196;2023-01-29T05:30:45;5.30;99.90
35920;DHT22;36160;53.370;-6.196;2023-01-29T05:33:14;5.30;99.90
35920;DHT22;36160;53.370;-6.196;2023-01-29T05:35:40;5.30;99.90
35920;DHT22;36160;53.370;-6.196;2023-01-29T05:38:06;5.30;99.90
35920;DHT22;36160;53.370;-6.196;2023-01-29T05:40:31;5.40;99.90
35920;DHT22;36160;53.370;-6.196;2023-01-29T05:42:58;5.40;99.90
35920;DHT22;36160;53.370;-6.196;2023-01-29T05:45:23;5.40;99.90
35920;DHT22;36160;53.370;-6.196;2023-01-29T05:47:49;5.40;99.90
35920;DHT22;36160;53.370;-6.196;2023-01-29T05:50:15;5.40;99.90
35920;DHT22;36160;53.370;-6.196;2023-01-29T05:52:41;5.50;99.90
35920;DHT22;36160;53.370;-6.196;2023-01-29T05:55:08;5.60;99.90
35920;DHT22;36160;53.370;-6.196;2023-01-29T05:57:35;5.60;99.90
35920;DHT22;36160;53.370;-6.196;2023-01-29T06:00:00;5.60;99.90
35920;DHT22;36160;53.370;-6.196;2023-01-29T06:02:29;5.60;99.90
35920;DHT22;36160;53.370;-6.196;2023-01-29T06:04:55;5.60;99.90
35920;DHT22;36160;53.370;-6.196;2023-01-29T06:07:21;5.60;99.90
35920;DHT22;36160;53.370;-6.196;2023-01-29T06:09:47;5.70;99.90
35920;DHT22;36160;53.370;-6.196;2023-01-29T06:12:13;5.60;99.90
35920;DHT22;36160;53.370;-6.196;2023-01-29T06:14:38;5.70;99.90
35920;DHT22;36160;53.370;-6.196;2023-01-29T06:17:04;5.70;99.90
35920;DHT22;36160;53.370;-6.196;2023-01-29T06:19:30;5.70;99.90
35920;DHT22;36160;53.370;-6.196;2023-01-29T06:21:56;5.60;99.90
35920;DHT22;36160;53.370;-6.196;2023-01-29T06:24:21;5.60;99.90
35920;DHT22;36160;53.370;-6.196;2023-01-29T06:26:47;5.60;99.90
35920;DHT22;36160;53.370;-6.196;2023-01-29T06:29:13;5.60;99.90
35920;DHT22;36160;53.370;-6.196;2023-01-29T06:31:38;5.60;99.90
35920;DHT22;36160;53.370;-6.196;2023-01-29T06:34:05;5.70;99.90
35920;DHT22;36160;53.370;-6.196;2023-01-29T06:36:31;5.60;99.90
35920;DHT22;36160;53.370;-6.196;2023-01-29T06:38:57;5.70;99.90
35920;DHT22;36160;53.370;-6.196;2023-01-29T06:41:23;5.70;99.90
35920;DHT22;36160;53.370;-6.196;2023-01-29T06:43:50;5.70;99.90
35920;DHT22;36160;53.370;-6.196;2023-01-29T06:46:16;5.60;99.90
35920;DHT22;36160;53.370;-6.196;2023-01-29T06:48:41;5.70;99.90
35920;DHT22;36160;53.370;-6.196;2023-01-29T06:51:08;5.70;99.90
35920;DHT22;36160;53.370;-6.196;2023-01-29T06:53:36;5.70;99.90
35920;DHT22;36160;53.370;-6.196;2023-01-29T06:56:03;5.70;99.90
35920;DHT22;36160;53.370;-6.196;2023-01-29T06:58:30;5.70;99.90
35920;DHT22;36160;53.370;-6.196;2023-01-29T07:01:06;5.70;99.90
35920;DHT22;36160;53.370;-6.196;2023-01-29T07:03:32;5.70;99.90
35920;DHT22;36160;53.370;-6.196;2023-01-29T07:05:58;5.70;99.90
35920;DHT22;36160;53.370;-6.196;2023-01-29T07:08:24;5.70;99.90
35920;DHT22;36160;53.370;-6.196;2023-01-29T07:10:49;5.70;99.90
35920;DHT22;36160;53.370;-6.196;2023-01-29T07:13:15;5.70;99.90
35920;DHT22;36160;53.370;-6.196;2023-01-29T07:15:41;5.70;99.90
35920;DHT22;36160;53.370;-6.196;2023-01-29T07:18:09;5.70;99.90
35920;DHT22;36160;53.370;-6.196;2023-01-29T07:20:39;5.70;99.90
35920;DHT22;36160;53.370;-6.196;2023-01-29T07:23:05;5.80;99.90
35920;DHT22;36160;53.370;-6.196;2023-01-29T07:25:33;5.70;99.90
35920;DHT22;36160;53.370;-6.196;2023-01-29T07:28:02;5.80;99.90
35920;DHT22;36160;53.370;-6.196;2023-01-29T07:30:28;5.80;99.90
35920;DHT22;36160;53.370;-6.196;2023-01-29T07:32:54;5.80;99.90
35920;DHT22;36160;53.370;-6.196;2023-01-29T07:35:20;5.70;99.90
35920;DHT22;36160;53.370;-6.196;2023-01-29T07:37:49;5.80;99.90
35920;DHT22;36160;53.370;-6.196;2023-01-29T07:40:15;5.80;99.90
35920;DHT22;36160;53.370;-6.196;2023-01-29T07:42:40;5.80;99.90
35920;DHT22;36160;53.370;-6.196;2023-01-29T07:45:08;5.80;99.90
35920;DHT22;36160;53.370;-6.196;2023-01-29T07:47:35;5.80;99.90
35920;DHT22;36160;53.370;-6.196;2023-01-29T07:50:00;5.70;99.90
35920;DHT22;36160;53.370;-6.196;2023-01-29T07:52:28;5.80;99.90
35920;DHT22;36160;53.370;-6.196;2023-01-29T07:54:54;5.70;99.90
35920;DHT22;36160;53.370;-6.196;2023-01-29T07:57:20;5.70;99.90
35920;DHT22;36160;53.370;-6.196;2023-01-29T07:59:45;5.80;99.90
35920;DHT22;36160;53.370;-6.196;2023-01-29T08:02:11;5.70;99.90
35920;DHT22;36160;53.370;-6.196;2023-01-29T08:04:37;5.70;99.90
35920;DHT22;36160;53.370;-6.196;2023-01-29T08:07:02;5.80;99.90
35920;DHT22;36160;53.370;-6.196;2023-01-29T08:09:29;5.80;99.90
35920;DHT22;36160;53.370;-6.196;2023-01-29T08:11:55;5.90;99.90
35920;DHT22;36160;53.370;-6.196;2023-01-29T08:14:22;5.90;99.90
35920;DHT22;36160;53.370;-6.196;2023-01-29T08:16:48;5.90;99.90
35920;DHT22;36160;53.370;-6.196;2023-01-29T08:19:14;5.90;99.90
35920;DHT22;36160;53.370;-6.196;2023-01-29T08:21:40;5.90;99.90
35920;DHT22;36160;53.370;-6.196;2023-01-29T08:24:05;6.00;99.90
35920;DHT22;36160;53.370;-6.196;2023-01-29T08:26:32;6.00;99.90
35920;DHT22;36160;53.370;-6.196;2023-01-29T08:28:58;6.10;99.90
35920;DHT22;36160;53.370;-6.196;2023-01-29T08:31:23;6.10;99.90
35920;DHT22;36160;53.370;-6.196;2023-01-29T08:33:49;6.20;99.90
35920;DHT22;36160;53.370;-6.196;2023-01-29T08:36:15;6.10;99.90
35920;DHT22;36160;53.370;-6.196;2023-01-29T08:38:41;6.20;99.90
35920;DHT22;36160;53.370;-6.196;2023-01-29T08:41:07;6.20;99.90
35920;DHT22;36160;53.370;-6.196;2023-01-29T08:43:33;6.30;99.90
35920;DHT22;36160;53.370;-6.196;2023-01-29T08:46:03;6.20;99.90
35920;DHT22;36160;53.370;-6.196;2023-01-29T08:48:29;6.30;99.90
35920;DHT22;36160;53.370;-6.196;2023-01-29T08:50:59;6.30;99.90
35920;DHT22;36160;53.370;-6.196;2023-01-29T08:53:26;6.30;99.90
35920;DHT22;36160;53.370;-6.196;2023-01-29T08:55:52;6.30;99.90
35920;DHT22;36160;53.370;-6.196;2023-01-29T08:58:17;6.40;99.90
35920;DHT22;36160;53.370;-6.196;2023-01-29T09:00:43;6.40;99.90
35920;DHT22;36160;53.370;-6.196;2023-01-29T09:03:09;6.40;99.90
35920;DHT22;36160;53.370;-6.196;2023-01-29T09:05:36;6.50;99.90
35920;DHT22;36160;53.370;-6.196;2023-01-29T09:08:03;6.60;99.90
35920;DHT22;36160;53.370;-6.196;2023-01-29T09:10:29;6.50;99.90
35920;DHT22;36160;53.370;-6.196;2023-01-29T09:12:55;6.60;99.90
35920;DHT22;36160;53.370;-6.196;2023-01-29T09:15:21;6.50;99.90
35920;DHT22;36160;53.370;-6.196;2023-01-29T09:17:46;6.60;99.90
35920;DHT22;36160;53.370;-6.196;2023-01-29T09:20:14;6.60;99.90
35920;DHT22;36160;53.370;-6.196;2023-01-29T09:22:40;6.60;99.90
35920;DHT22;36160;53.370;-6.196;2023-01-29T09:25:07;6.60;99.90
35920;DHT22;36160;53.370;-6.196;2023-01-29T09:27:32;6.70;99.90
35920;DHT22;36160;53.370;-6.196;2023-01-29T09:29:58;6.80;99.90
35920;DHT22;36160;53.370;-6.196;2023-01-29T09:32:24;6.70;99.90
35920;DHT22;36160;53.370;-6.196;2023-01-29T09:34:49;6.90;99.90
35920;DHT22;36160;53.370;-6.196;2023-01-29T09:37:15;6.80;99.90
35920;DHT22;36160;53.370;-6.196;2023-01-29T09:39:42;6.90;99.90
35920;DHT22;36160;53.370;-6.196;2023-01-29T09:42:18;6.90;99.90
35920;DHT22;36160;53.370;-6.196;2023-01-29T09:45:08;6.90;99.90
35920;DHT22;36160;53.370;-6.196;2023-01-29T09:47:35;6.90;99.90
35920;DHT22;36160;53.370;-6.196;2023-01-29T09:50:16;6.90;99.90
35920;DHT22;36160;53.370;-6.196;2023-01-29T09:52:57;7.00;99.90
35920;DHT22;36160;53.370;-6.196;2023-01-29T09:55:36;7.10;99.90
35920;DHT22;36160;53.370;-6.196;2023-01-29T10:03:45;6.90;99.90
35920;DHT22;36160;53.370;-6.196;2023-01-29T10:06:52;7.00;99.90
35920;DHT22;36160;53.370;-6.196;2023-01-29T10:18:33;7.00;99.90
35920;DHT22;36160;53.370;-6.196;2023-01-29T10:20:58;7.00;99.90
35920;DHT22;36160;53.370;-6.196;2023-01-29T10:23:31;7.00;99.90
35920;DHT22;36160;53.370;-6.196;2023-01-29T10:25:58;7.00;99.90
35920;DHT22;36160;53.370;-6.196;2023-01-29T10:28:30;7.10;99.90
35920;DHT22;36160;53.370;-6.196;2023-01-29T10:31:05;7.20;99.90
35920;DHT22;36160;53.370;-6.196;2023-01-29T10:33:37;7.20;99.90
35920;DHT22;36160;53.370;-6.196;2023-01-29T10:36:08;7.10;99.90
35920;DHT22;36160;53.370;-6.196;2023-01-29T10:46:22;7.20;99.90
35920;DHT22;36160;53.370;-6.196;2023-01-29T10:50:03;7.30;99.90
35920;DHT22;36160;53.370;-6.196;2023-01-29T10:52:55;7.30;99.90
35920;DHT22;36160;53.370;-6.196;2023-01-29T11:00:19;7.50;99.90
35920;DHT22;36160;53.370;-6.196;2023-01-29T11:02:48;7.50;99.90
35920;DHT22;36160;53.370;-6.196;2023-01-29T11:05:35;7.50;99.90
35920;DHT22;36160;53.370;-6.196;2023-01-29T11:08:09;7.50;99.90
35920;DHT22;36160;53.370;-6.196;2023-01-29T11:10:44;7.50;99.90
35920;DHT22;36160;53.370;-6.196;2023-01-29T11:13:14;7.60;99.90
35920;DHT22;36160;53.370;-6.196;2023-01-29T11:15:40;7.60;99.90
35920;DHT22;36160;53.370;-6.196;2023-01-29T11:18:12;7.50;99.90
35920;DHT22;36160;53.370;-6.196;2023-01-29T11:20:43;7.60;99.90
35920;DHT22;36160;53.370;-6.196;2023-01-29T11:23:36;7.60;99.90
35920;DHT22;36160;53.370;-6.196;2023-01-29T11:26:02;7.60;99.90
35920;DHT22;36160;53.370;-6.196;2023-01-29T11:31:01;7.70;99.90
35920;DHT22;36160;53.370;-6.196;2023-01-29T11:33:27;7.70;99.90
35920;DHT22;36160;53.370;-6.196;2023-01-29T11:35:53;7.60;99.90
35920;DHT22;36160;53.370;-6.196;2023-01-29T11:38:26;7.50;99.90
35920;DHT22;36160;53.370;-6.196;2023-01-29T11:41:06;7.60;99.90
35920;DHT22;36160;53.370;-6.196;2023-01-29T11:43:38;7.60;99.90
35920;DHT22;36160;53.370;-6.196;2023-01-29T11:46:10;7.70;99.90
35920;DHT22;36160;53.370;-6.196;2023-01-29T11:48:45;7.70;99.90
35920;DHT22;36160;53.370;-6.196;2023-01-29T11:51:33;7.70;99.90
35920;DHT22;36160;53.370;-6.196;2023-01-29T11:54:02;7.80;99.90
35920;DHT22;36160;53.370;-6.196;2023-01-29T11:59:03;8.00;99.90
35920;DHT22;36160;53.370;-6.196;2023-01-29T12:01:40;8.00;99.90
35920;DHT22;36160;53.370;-6.196;2023-01-29T12:04:25;8.10;99.90
35920;DHT22;36160;53.370;-6.196;2023-01-29T12:06:51;8.20;99.90
35920;DHT22;36160;53.370;-6.196;2023-01-29T12:09:21;8.30;99.90
35920;DHT22;36160;53.370;-6.196;2023-01-29T12:11:51;8.40;99.90
35920;DHT22;36160;53.370;-6.196;2023-01-29T12:14:27;8.50;99.90
35920;DHT22;36160;53.370;-6.196;2023-01-29T12:17:11;8.60;99.90
35920;DHT22;36160;53.370;-6.196;2023-01-29T12:19:45;8.60;99.90
35920;DHT22;36160;53.370;-6.196;2023-01-29T12:22:22;8.70;99.90
35920;DHT22;36160;53.370;-6.196;2023-01-29T12:30:22;8.80;99.90
35920;DHT22;36160;53.370;-6.196;2023-01-29T12:32:57;8.80;99.90
35920;DHT22;36160;53.370;-6.196;2023-01-29T12:36:04;8.80;99.90
35920;DHT22;36160;53.370;-6.196;2023-01-29T12:38:24;8.90;99.90
35920;DHT22;36160;53.370;-6.196;2023-01-29T12:40:57;8.90;99.90
35920;DHT22;36160;53.370;-6.196;2023-01-29T12:45:56;9.10;99.90
35920;DHT22;36160;53.370;-6.196;2023-01-29T12:48:33;9.10;99.90
35920;DHT22;36160;53.370;-6.196;2023-01-29T12:51:07;9.10;99.90
35920;DHT22;36160;53.370;-6.196;2023-01-29T12:53:38;9.30;99.90
35920;DHT22;36160;53.370;-6.196;2023-01-29T12:56:45;9.30;99.90
35920;DHT22;36160;53.370;-6.196;2023-01-29T12:59:19;9.40;99.90
35920;DHT22;36160;53.370;-6.196;2023-01-29T13:01:53;9.50;99.90
35920;DHT22;36160;53.370;-6.196;2023-01-29T13:04:39;9.60;99.90
35920;DHT22;36160;53.370;-6.196;2023-01-29T13:07:36;9.90;99.90
35920;DHT22;36160;53.370;-6.196;2023-01-29T13:10:16;10.00;99.90
35920;DHT22;36160;53.370;-6.196;2023-01-29T13:12:53;10.10;99.90
35920;DHT22;36160;53.370;-6.196;2023-01-29T13:15:39;10.10;99.90
35920;DHT22;36160;53.370;-6.196;2023-01-29T13:18:26;10.20;99.90
35920;DHT22;36160;53.370;-6.196;2023-01-29T13:20:58;10.30;99.90
35920;DHT22;36160;53.370;-6.196;2023-01-29T13:23:38;10.20;99.90
35920;DHT22;36160;53.370;-6.196;2023-01-29T13:26:06;10.30;99.90
35920;DHT22;36160;53.370;-6.196;2023-01-29T13:28:32;10.40;99.90
35920;DHT22;36160;53.370;-6.196;2023-01-29T13:33:40;10.20;99.90
35920;DHT22;36160;53.370;-6.196;2023-01-29T13:36:15;10.30;99.90
35920;DHT22;36160;53.370;-6.196;2023-01-29T13:38:43;10.40;99.90
35920;DHT22;36160;53.370;-6.196;2023-01-29T13:41:10;10.30;99.90
35920;DHT22;36160;53.370;-6.196;2023-01-29T13:43:38;10.30;99.90
35920;DHT22;36160;53.370;-6.196;2023-01-29T13:46:15;10.40;99.90
35920;DHT22;36160;53.370;-6.196;2023-01-29T13:48:45;10.30;99.90
35920;DHT22;36160;53.370;-6.196;2023-01-29T13:51:15;10.40;99.90
35920;DHT22;36160;53.370;-6.196;2023-01-29T13:53:56;10.60;99.90
35920;DHT22;36160;53.370;-6.196;2023-01-29T13:58:58;10.70;99.90
35920;DHT22;36160;53.370;-6.196;2023-01-29T14:06:50;10.80;99.90
35920;DHT22;36160;53.370;-6.196;2023-01-29T14:12:04;10.70;99.90
35920;DHT22;36160;53.370;-6.196;2023-01-29T14:17:21;10.70;99.90
35920;DHT22;36160;53.370;-6.196;2023-01-29T14:19:51;10.60;99.90
35920;DHT22;36160;53.370;-6.196;2023-01-29T14:22:25;10.70;99.90
35920;DHT22;36160;53.370;-6.196;2023-01-29T14:25:01;10.70;99.90
35920;DHT22;36160;53.370;-6.196;2023-01-29T14:27:28;10.70;99.90
35920;DHT22;36160;53.370;-6.196;2023-01-29T14:30:05;10.80;99.90
35920;DHT22;36160;53.370;-6.196;2023-01-29T14:32:31;10.80;99.90
35920;DHT22;36160;53.370;-6.196;2023-01-29T14:35:16;10.80;99.90
35920;DHT22;36160;53.370;-6.196;2023-01-29T14:37:46;10.80;99.90
35920;DHT22;36160;53.370;-6.196;2023-01-29T14:45:36;11.00;99.90
35920;DHT22;36160;53.370;-6.196;2023-01-29T14:50:38;10.90;99.90
35920;DHT22;36160;53.370;-6.196;2023-01-29T14:56:02;10.80;99.90
35920;DHT22;36160;53.370;-6.196;2023-01-29T14:58:40;10.80;99.90
35920;DHT22;36160;53.370;-6.196;2023-01-29T15:01:36;10.70;99.90
35920;DHT22;36160;53.370;-6.196;2023-01-29T15:04:03;10.70;99.90
35920;DHT22;36160;53.370;-6.196;2023-01-29T15:06:37;10.70;99.90
35920;DHT22;36160;53.370;-6.196;2023-01-29T15:09:16;10.70;99.90
35920;DHT22;36160;53.370;-6.196;2023-01-29T15:12:02;10.70;99.90
35920;DHT22;36160;53.370;-6.196;2023-01-29T15:20:00;10.70;99.90
35920;DHT22;36160;53.370;-6.196;2023-01-29T15:22:26;10.70;99.90
35920;DHT22;36160;53.370;-6.196;2023-01-29T15:25:12;10.60;99.90
35920;DHT22;36160;53.370;-6.196;2023-01-29T15:27:42;10.60;99.90
35920;DHT22;36160;53.370;-6.196;2023-01-29T15:30:30;10.60;99.90
35920;DHT22;36160;53.370;-6.196;2023-01-29T15:32:57;10.50;99.90
35920;DHT22;36160;53.370;-6.196;2023-01-29T15:35:37;10.50;99.90
35920;DHT22;36160;53.370;-6.196;2023-01-29T15:38:38;10.60;99.90
35920;DHT22;36160;53.370;-6.196;2023-01-29T15:41:14;10.60;99.90
35920;DHT22;36160;53.370;-6.196;2023-01-29T15:44:29;10.60;99.90
35920;DHT22;36160;53.370;-6.196;2023-01-29T15:46:35;10.70;99.90
35920;DHT22;36160;53.370;-6.196;2023-01-29T15:49:10;10.70;99.90
35920;DHT22;36160;53.370;-6.196;2023-01-29T15:51:40;10.60;99.90
35920;DHT22;36160;53.370;-6.196;2023-01-29T15:54:10;10.60;99.90
35920;DHT22;36160;53.370;-6.196;2023-01-29T15:56:47;10.70;99.90
35920;DHT22;36160;53.370;-6.196;2023-01-29T15:59:20;10.70;99.90
35920;DHT22;36160;53.370;-6.196;2023-01-29T16:01:47;10.70;99.90
35920;DHT22;36160;53.370;-6.196;2023-01-29T16:04:25;10.70;99.90
35920;DHT22;36160;53.370;-6.196;2023-01-29T16:06:53;10.70;99.90
35920;DHT22;36160;53.370;-6.196;2023-01-29T16:09:23;10.70;99.90
35920;DHT22;36160;53.370;-6.196;2023-01-29T16:11:51;10.70;99.90
35920;DHT22;36160;53.370;-6.196;2023-01-29T16:14:20;10.70;99.90
35920;DHT22;36160;53.370;-6.196;2023-01-29T16:16:47;10.70;99.90
35920;DHT22;36160;53.370;-6.196;2023-01-29T16:19:33;10.70;99.90
35920;DHT22;36160;53.370;-6.196;2023-01-29T16:22:01;10.70;99.90
35920;DHT22;36160;53.370;-6.196;2023-01-29T16:24:29;10.70;99.90
35920;DHT22;36160;53.370;-6.196;2023-01-29T16:27:00;10.70;99.90
35920;DHT22;36160;53.370;-6.196;2023-01-29T16:29:30;10.70;99.90
35920;DHT22;36160;53.370;-6.196;2023-01-29T16:31:58;10.70;99.90
35920;DHT22;36160;53.370;-6.196;2023-01-29T16:34:35;10.70;99.90
35920;DHT22;36160;53.370;-6.196;2023-01-29T16:37:04;10.70;99.90
35920;DHT22;36160;53.370;-6.196;2023-01-29T16:39:34;10.70;99.90
35920;DHT22;36160;53.370;-6.196;2023-01-29T16:42:24;10.60;99.90
35920;DHT22;36160;53.370;-6.196;2023-01-29T16:45:23;10.60;99.90
35920;DHT22;36160;53.370;-6.196;2023-01-29T16:47:39;10.60;99.90
35920;DHT22;36160;53.370;-6.196;2023-01-29T16:53:11;10.60;99.90
35920;DHT22;36160;53.370;-6.196;2023-01-29T16:55:41;10.60;99.90
35920;DHT22;36160;53.370;-6.196;2023-01-29T16:58:23;10.60;99.90
35920;DHT22;36160;53.370;-6.196;2023-01-29T17:00:55;10.60;99.90
35920;DHT22;36160;53.370;-6.196;2023-01-29T17:03:24;10.60;99.90
35920;DHT22;36160;53.370;-6.196;2023-01-29T17:05:51;10.60;99.90
35920;DHT22;36160;53.370;-6.196;2023-01-29T17:08:30;10.60;99.90
35920;DHT22;36160;53.370;-6.196;2023-01-29T17:10:57;10.50;99.90
35920;DHT22;36160;53.370;-6.196;2023-01-29T17:16:01;10.50;99.90
35920;DHT22;36160;53.370;-6.196;2023-01-29T17:18:29;10.50;99.90
35920;DHT22;36160;53.370;-6.196;2023-01-29T17:20:56;10.40;99.90
35920;DHT22;36160;53.370;-6.196;2023-01-29T17:23:22;10.40;99.90
35920;DHT22;36160;53.370;-6.196;2023-01-29T17:25:48;10.30;99.90
35920;DHT22;36160;53.370;-6.196;2023-01-29T17:28:15;10.30;99.90
35920;DHT22;36160;53.370;-6.196;2023-01-29T17:30:42;10.30;99.90
35920;DHT22;36160;53.370;-6.196;2023-01-29T17:33:13;10.30;99.90
35920;DHT22;36160;53.370;-6.196;2023-01-29T17:35:39;10.40;99.90
35920;DHT22;36160;53.370;-6.196;2023-01-29T17:38:10;10.40;99.90
35920;DHT22;36160;53.370;-6.196;2023-01-29T17:43:10;10.40;99.90
35920;DHT22;36160;53.370;-6.196;2023-01-29T17:45:39;10.40;99.90
35920;DHT22;36160;53.370;-6.196;2023-01-29T17:48:21;10.30;99.90
35920;DHT22;36160;53.370;-6.196;2023-01-29T17:50:52;10.40;99.90
35920;DHT22;36160;53.370;-6.196;2023-01-29T17:53:19;10.40;99.90
35920;DHT22;36160;53.370;-6.196;2023-01-29T17:55:46;10.30;99.90
35920;DHT22;36160;53.370;-6.196;2023-01-29T17:58:24;10.30;99.90
35920;DHT22;36160;53.370;-6.196;2023-01-29T18:00:50;10.40;99.90
35920;DHT22;36160;53.370;-6.196;2023-01-29T18:03:16;10.40;99.90
35920;DHT22;36160;53.370;-6.196;2023-01-29T18:05:44;10.50;99.90
35920;DHT22;36160;53.370;-6.196;2023-01-29T18:08:28;10.50;99.90
35920;DHT22;36160;53.370;-6.196;2023-01-29T18:10:55;10.50;99.90
35920;DHT22;36160;53.370;-6.196;2023-01-29T18:13:21;10.50;99.90
35920;DHT22;36160;53.370;-6.196;2023-01-29T18:15:47;10.50;99.90